sensor_id;sensor_type;location;lat;lon;timestamp;P1;durP1;ratioP1;P2;durP2;ratioP2
67053;SDS011;53960;51.826;5.850;2024-03-02T00:00:03;4.55;;;1.20;;
67053;SDS011;53960;51.826;5.850;2024-03-02T00:02:39;6.27;;;1.30;;
67053;SDS011;53960;51.826;5.850;2024-03-02T00:05:08;4.40;;;1.08;;
67053;SDS011;53960;51.826;5.850;2024-03-02T00:07:36;5.63;;;1.20;;
67053;SDS011;53960;51.826;5.850;2024-03-02T00:10:04;5.20;;;1.30;;
67053;SDS011;53960;51.826;5.850;2024-03-02T00:12:34;7.28;;;1.45;;
67053;SDS011;53960;51.826;5.850;2024-03-02T00:14:59;5.60;;;1.27;;
67053;SDS011;53960;51.826;5.850;2024-03-02T00:17:27;5.40;;;1.20;;
67053;SDS011;53960;51.826;5.850;2024-03-02T00:19:54;5.35;;;1.35;;
67053;SDS011;53960;51.826;5.850;2024-03-02T00:22:19;5.57;;;1.17;;
67053;SDS011;53960;51.826;5.850;2024-03-02T00:24:45;5.40;;;1.20;;
67053;SDS011;53960;51.826;5.850;2024-03-02T00:27:12;6.72;;;1.30;;
67053;SDS011;53960;51.826;5.850;2024-03-02T00:29:39;5.17;;;1.50;;
67053;SDS011;53960;51.826;5.850;2024-03-02T00:32:09;5.28;;;1.13;;
67053;SDS011;53960;51.826;5.850;2024-03-02T00:34:41;6.10;;;1.70;;
67053;SDS011;53960;51.826;5.850;2024-03-02T00:37:06;5.23;;;1.30;;
67053;SDS011;53960;51.826;5.850;2024-03-02T00:39:32;6.00;;;1.38;;
67053;SDS011;53960;51.826;5.850;2024-03-02T00:41:57;5.60;;;1.67;;
67053;SDS011;53960;51.826;5.850;2024-03-02T00:44:24;5.13;;;1.40;;
67053;SDS011;53960;51.826;5.850;2024-03-02T00:46:51;5.05;;;1.02;;
67053;SDS011;53960;51.826;5.850;2024-03-02T00:49:21;7.03;;;1.23;;
67053;SDS011;53960;51.826;5.850;2024-03-02T00:51:48;6.47;;;1.38;;
67053;SDS011;53960;51.826;5.850;2024-03-02T00:54:14;5.83;;;1.30;;
67053;SDS011;53960;51.826;5.850;2024-03-02T00:56:43;4.82;;;1.52;;
67053;SDS011;53960;51.826;5.850;2024-03-02T00:59:09;5.32;;;1.10;;
67053;SDS011;53960;51.826;5.850;2024-03-02T01:01:35;4.65;;;1.35;;
67053;SDS011;53960;51.826;5.850;2024-03-02T01:04:00;6.67;;;1.43;;
67053;SDS011;53960;51.826;5.850;2024-03-02T01:06:26;5.23;;;1.20;;
67053;SDS011;53960;51.826;5.850;2024-03-02T01:08:51;4.67;;;1.13;;
67053;SDS011;53960;51.826;5.850;2024-03-02T01:11:17;6.13;;;1.20;;
67053;SDS011;53960;51.826;5.850;2024-03-02T01:13:43;5.10;;;1.00;;
67053;SDS011;53960;51.826;5.850;2024-03-02T01:16:09;2.80;;;0.65;;
67053;SDS011;53960;51.826;5.850;2024-03-02T01:18:34;3.00;;;0.70;;
67053;SDS011;53960;51.826;5.850;2024-03-02T01:21:00;4.27;;;0.70;;
67053;SDS011;53960;51.826;5.850;2024-03-02T01:23:26;2.58;;;0.65;;
67053;SDS011;53960;51.826;5.850;2024-03-02T01:25:51;5.63;;;0.70;;
67053;SDS011;53960;51.826;5.850;2024-03-02T01:28:17;3.40;;;0.70;;
67053;SDS011;53960;51.826;5.850;2024-03-02T01:30:44;2.60;;;0.50;;
67053;SDS011;53960;51.826;5.850;2024-03-02T01:33:09;2.15;;;0.45;;
67053;SDS011;53960;51.826;5.850;2024-03-02T01:35:35;3.33;;;0.50;;
67053;SDS011;53960;51.826;5.850;2024-03-02T01:38:00;1.97;;;0.50;;
67053;SDS011;53960;51.826;5.850;2024-03-02T01:40:26;2.05;;;0.60;;
67053;SDS011;53960;51.826;5.850;2024-03-02T01:42:52;1.43;;;0.40;;
67053;SDS011;53960;51.826;5.850;2024-03-02T01:45:23;2.20;;;0.50;;
67053;SDS011;53960;51.826;5.850;2024-03-02T01:47:49;4.10;;;0.60;;
67053;SDS011;53960;51.826;5.850;2024-03-02T01:50:15;2.23;;;0.50;;
67053;SDS011;53960;51.826;5.850;2024-03-02T01:52:48;3.90;;;0.50;;
67053;SDS011;53960;51.826;5.850;2024-03-02T01:55:14;2.00;;;0.50;;
67053;SDS011;53960;51.826;5.850;2024-03-02T01:57:39;2.07;;;0.50;;
67053;SDS011;53960;51.826;5.850;2024-03-02T02:00:05;2.78;;;0.60;;
67053;SDS011;53960;51.826;5.850;2024-03-02T02:02:30;2.07;;;0.50;;
67053;SDS011;53960;51.826;5.850;2024-03-02T02:04:56;3.20;;;0.70;;
67053;SDS011;53960;51.826;5.850;2024-03-02T02:07:21;3.53;;;0.80;;
67053;SDS011;53960;51.826;5.850;2024-03-02T02:09:46;2.67;;;0.60;;
67053;SDS011;53960;51.826;5.850;2024-03-02T02:12:12;3.47;;;0.60;;
67053;SDS011;53960;51.826;5.850;2024-03-02T02:14:37;2.13;;;0.60;;
67053;SDS011;53960;51.826;5.850;2024-03-02T02:17:04;4.53;;;0.70;;
67053;SDS011;53960;51.826;5.850;2024-03-02T02:19:30;2.20;;;0.60;;
67053;SDS011;53960;51.826;5.850;2024-03-02T02:21:55;2.67;;;0.50;;
67053;SDS011;53960;51.826;5.850;2024-03-02T02:24:21;2.67;;;0.57;;
67053;SDS011;53960;51.826;5.850;2024-03-02T02:26:46;3.70;;;0.60;;
67053;SDS011;53960;51.826;5.850;2024-03-02T02:29:11;1.93;;;0.40;;
67053;SDS011;53960;51.826;5.850;2024-03-02T02:31:40;3.63;;;0.50;;
67053;SDS011;53960;51.826;5.850;2024-03-02T02:34:06;2.28;;;0.57;;
67053;SDS011;53960;51.826;5.850;2024-03-02T02:36:32;3.13;;;0.70;;
67053;SDS011;53960;51.826;5.850;2024-03-02T02:39:00;2.42;;;0.50;;
67053;SDS011;53960;51.826;5.850;2024-03-02T02:41:28;2.77;;;0.60;;
67053;SDS011;53960;51.826;5.850;2024-03-02T02:43:54;3.25;;;0.88;;
67053;SDS011;53960;51.826;5.850;2024-03-02T02:46:19;3.43;;;0.70;;
67053;SDS011;53960;51.826;5.850;2024-03-02T02:48:45;2.30;;;0.60;;
67053;SDS011;53960;51.826;5.850;2024-03-02T02:51:10;2.45;;;0.60;;
67053;SDS011;53960;51.826;5.850;2024-03-02T02:53:35;2.97;;;0.50;;
67053;SDS011;53960;51.826;5.850;2024-03-02T02:56:05;2.07;;;0.57;;
67053;SDS011;53960;51.826;5.850;2024-03-02T02:58:31;2.05;;;0.60;;
67053;SDS011;53960;51.826;5.850;2024-03-02T03:00:56;2.40;;;0.60;;
67053;SDS011;53960;51.826;5.850;2024-03-02T03:03:21;2.17;;;0.60;;
67053;SDS011;53960;51.826;5.850;2024-03-02T03:05:47;2.17;;;0.60;;
67053;SDS011;53960;51.826;5.850;2024-03-02T03:08:13;2.00;;;0.50;;
67053;SDS011;53960;51.826;5.850;2024-03-02T03:10:38;2.30;;;0.50;;
67053;SDS011;53960;51.826;5.850;2024-03-02T03:13:04;1.63;;;0.40;;
67053;SDS011;53960;51.826;5.850;2024-03-02T03:15:29;1.53;;;0.40;;
67053;SDS011;53960;51.826;5.850;2024-03-02T03:17:54;2.50;;;0.60;;
67053;SDS011;53960;51.826;5.850;2024-03-02T03:20:20;3.37;;;0.60;;
67053;SDS011;53960;51.826;5.850;2024-03-02T03:22:46;3.15;;;0.50;;
67053;SDS011;53960;51.826;5.850;2024-03-02T03:25:11;3.27;;;0.60;;
67053;SDS011;53960;51.826;5.850;2024-03-02T03:27:37;1.90;;;0.60;;
67053;SDS011;53960;51.826;5.850;2024-03-02T03:30:02;2.85;;;0.50;;
67053;SDS011;53960;51.826;5.850;2024-03-02T03:32:28;3.40;;;0.70;;
67053;SDS011;53960;51.826;5.850;2024-03-02T03:34:53;3.00;;;0.67;;
67053;SDS011;53960;51.826;5.850;2024-03-02T03:37:19;2.20;;;0.60;;
67053;SDS011;53960;51.826;5.850;2024-03-02T03:39:44;3.03;;;0.70;;
67053;SDS011;53960;51.826;5.850;2024-03-02T03:42:09;2.70;;;0.50;;
67053;SDS011;53960;51.826;5.850;2024-03-02T03:44:34;2.15;;;0.55;;
67053;SDS011;53960;51.826;5.850;2024-03-02T03:47:00;3.63;;;0.90;;
67053;SDS011;53960;51.826;5.850;2024-03-02T03:49:27;2.20;;;0.55;;
67053;SDS011;53960;51.826;5.850;2024-03-02T03:51:52;3.20;;;0.60;;
67053;SDS011;53960;51.826;5.850;2024-03-02T03:54:18;2.17;;;0.53;;
67053;SDS011;53960;51.826;5.850;2024-03-02T03:56:43;1.90;;;0.50;;
67053;SDS011;53960;51.826;5.850;2024-03-02T03:59:08;2.50;;;0.60;;
67053;SDS011;53960;51.826;5.850;2024-03-02T04:01:34;1.50;;;0.50;;
67053;SDS011;53960;51.826;5.850;2024-03-02T04:03:59;3.17;;;0.70;;
67053;SDS011;53960;51.826;5.850;2024-03-02T04:06:26;1.83;;;0.50;;
67053;SDS011;53960;51.826;5.850;2024-03-02T04:08:52;2.42;;;0.60;;
67053;SDS011;53960;51.826;5.850;2024-03-02T04:11:18;4.53;;;0.60;;
67053;SDS011;53960;51.826;5.850;2024-03-02T04:13:43;1.90;;;0.50;;
67053;SDS011;53960;51.826;5.850;2024-03-02T04:16:08;3.50;;;0.97;;
67053;SDS011;53960;51.826;5.850;2024-03-02T04:18:34;3.90;;;0.70;;
67053;SDS011;53960;51.826;5.850;2024-03-02T04:20:59;3.25;;;0.60;;
67053;SDS011;53960;51.826;5.850;2024-03-02T04:23:26;2.50;;;0.40;;
67053;SDS011;53960;51.826;5.850;2024-03-02T04:25:51;2.47;;;0.55;;
67053;SDS011;53960;51.826;5.850;2024-03-02T04:28:16;2.33;;;0.50;;
67053;SDS011;53960;51.826;5.850;2024-03-02T04:30:42;3.53;;;0.60;;
67053;SDS011;53960;51.826;5.850;2024-03-02T04:33:07;2.63;;;0.70;;
67053;SDS011;53960;51.826;5.850;2024-03-02T04:35:35;3.47;;;0.60;;
67053;SDS011;53960;51.826;5.850;2024-03-02T04:38:00;3.85;;;0.70;;
67053;SDS011;53960;51.826;5.850;2024-03-02T04:40:26;2.87;;;0.60;;
67053;SDS011;53960;51.826;5.850;2024-03-02T04:42:51;3.27;;;0.60;;
67053;SDS011;53960;51.826;5.850;2024-03-02T04:45:16;3.33;;;0.60;;
67053;SDS011;53960;51.826;5.850;2024-03-02T04:47:42;2.90;;;0.60;;
67053;SDS011;53960;51.826;5.850;2024-03-02T04:50:07;2.53;;;0.50;;
67053;SDS011;53960;51.826;5.850;2024-03-02T04:52:35;2.50;;;0.50;;
67053;SDS011;53960;51.826;5.850;2024-03-02T04:55:00;2.40;;;0.57;;
67053;SDS011;53960;51.826;5.850;2024-03-02T04:57:41;3.90;;;0.80;;
67053;SDS011;53960;51.826;5.850;2024-03-02T05:00:07;2.25;;;0.50;;
67053;SDS011;53960;51.826;5.850;2024-03-02T05:02:33;2.80;;;0.60;;
67053;SDS011;53960;51.826;5.850;2024-03-02T05:04:59;3.28;;;0.60;;
67053;SDS011;53960;51.826;5.850;2024-03-02T05:07:24;2.57;;;0.70;;
67053;SDS011;53960;51.826;5.850;2024-03-02T05:09:50;3.10;;;0.53;;
67053;SDS011;53960;51.826;5.850;2024-03-02T05:12:15;2.23;;;0.60;;
67053;SDS011;53960;51.826;5.850;2024-03-02T05:14:59;4.22;;;0.90;;
67053;SDS011;53960;51.826;5.850;2024-03-02T05:17:24;2.60;;;0.60;;
67053;SDS011;53960;51.826;5.850;2024-03-02T05:19:50;2.70;;;0.60;;
67053;SDS011;53960;51.826;5.850;2024-03-02T05:22:15;2.67;;;0.60;;
67053;SDS011;53960;51.826;5.850;2024-03-02T05:24:41;2.70;;;0.83;;
67053;SDS011;53960;51.826;5.850;2024-03-02T05:27:06;2.53;;;0.60;;
67053;SDS011;53960;51.826;5.850;2024-03-02T05:29:32;2.80;;;0.50;;
67053;SDS011;53960;51.826;5.850;2024-03-02T05:31:58;2.20;;;0.50;;
67053;SDS011;53960;51.826;5.850;2024-03-02T05:34:23;2.53;;;0.50;;
67053;SDS011;53960;51.826;5.850;2024-03-02T05:36:48;3.83;;;0.70;;
67053;SDS011;53960;51.826;5.850;2024-03-02T05:39:13;2.47;;;0.60;;
67053;SDS011;53960;51.826;5.850;2024-03-02T05:41:39;3.20;;;0.50;;
67053;SDS011;53960;51.826;5.850;2024-03-02T05:44:04;3.20;;;0.70;;
67053;SDS011;53960;51.826;5.850;2024-03-02T05:46:30;3.37;;;0.70;;
67053;SDS011;53960;51.826;5.850;2024-03-02T05:48:55;3.80;;;0.60;;
67053;SDS011;53960;51.826;5.850;2024-03-02T05:51:21;3.97;;;0.60;;
67053;SDS011;53960;51.826;5.850;2024-03-02T05:53:46;2.50;;;0.50;;
67053;SDS011;53960;51.826;5.850;2024-03-02T05:56:11;3.13;;;0.50;;
67053;SDS011;53960;51.826;5.850;2024-03-02T05:58:37;4.37;;;0.63;;
67053;SDS011;53960;51.826;5.850;2024-03-02T06:01:17;2.55;;;0.60;;
67053;SDS011;53960;51.826;5.850;2024-03-02T06:03:45;1.60;;;0.50;;
67053;SDS011;53960;51.826;5.850;2024-03-02T06:06:10;3.53;;;0.50;;
67053;SDS011;53960;51.826;5.850;2024-03-02T06:08:35;2.00;;;0.43;;
67053;SDS011;53960;51.826;5.850;2024-03-02T06:11:01;2.50;;;0.50;;
67053;SDS011;53960;51.826;5.850;2024-03-02T06:13:26;3.03;;;0.50;;
67053;SDS011;53960;51.826;5.850;2024-03-02T06:15:52;2.50;;;0.60;;
67053;SDS011;53960;51.826;5.850;2024-03-02T06:18:17;2.93;;;0.57;;
67053;SDS011;53960;51.826;5.850;2024-03-02T06:20:43;4.67;;;0.80;;
67053;SDS011;53960;51.826;5.850;2024-03-02T06:23:08;3.67;;;0.70;;
67053;SDS011;53960;51.826;5.850;2024-03-02T06:25:33;3.33;;;0.70;;
67053;SDS011;53960;51.826;5.850;2024-03-02T06:27:58;2.27;;;0.50;;
67053;SDS011;53960;51.826;5.850;2024-03-02T06:30:24;2.40;;;0.60;;
67053;SDS011;53960;51.826;5.850;2024-03-02T06:32:49;3.33;;;0.57;;
67053;SDS011;53960;51.826;5.850;2024-03-02T06:35:14;3.20;;;0.50;;
67053;SDS011;53960;51.826;5.850;2024-03-02T06:37:40;2.57;;;0.60;;
67053;SDS011;53960;51.826;5.850;2024-03-02T06:40:06;3.90;;;0.60;;
67053;SDS011;53960;51.826;5.850;2024-03-02T06:42:35;2.70;;;0.60;;
67053;SDS011;53960;51.826;5.850;2024-03-02T06:45:01;2.50;;;0.70;;
67053;SDS011;53960;51.826;5.850;2024-03-02T06:47:27;4.40;;;0.70;;
67053;SDS011;53960;51.826;5.850;2024-03-02T06:49:52;2.03;;;0.50;;
67053;SDS011;53960;51.826;5.850;2024-03-02T06:52:18;3.87;;;0.70;;
67053;SDS011;53960;51.826;5.850;2024-03-02T06:54:43;3.17;;;0.80;;
67053;SDS011;53960;51.826;5.850;2024-03-02T06:57:09;3.22;;;0.70;;
67053;SDS011;53960;51.826;5.850;2024-03-02T06:59:34;2.80;;;0.60;;
67053;SDS011;53960;51.826;5.850;2024-03-02T07:02:00;4.17;;;0.80;;
67053;SDS011;53960;51.826;5.850;2024-03-02T07:04:26;2.70;;;0.60;;
67053;SDS011;53960;51.826;5.850;2024-03-02T07:06:52;5.57;;;1.03;;
67053;SDS011;53960;51.826;5.850;2024-03-02T07:09:17;3.90;;;0.63;;
67053;SDS011;53960;51.826;5.850;2024-03-02T07:11:42;3.85;;;0.80;;
67053;SDS011;53960;51.826;5.850;2024-03-02T07:14:08;5.37;;;0.80;;
67053;SDS011;53960;51.826;5.850;2024-03-02T07:16:33;3.47;;;0.93;;
67053;SDS011;53960;51.826;5.850;2024-03-02T07:18:59;6.45;;;1.00;;
67053;SDS011;53960;51.826;5.850;2024-03-02T07:21:26;5.18;;;0.90;;
67053;SDS011;53960;51.826;5.850;2024-03-02T07:23:52;5.60;;;1.00;;
67053;SDS011;53960;51.826;5.850;2024-03-02T07:26:17;4.00;;;0.90;;
67053;SDS011;53960;51.826;5.850;2024-03-02T07:28:43;4.17;;;0.80;;
67053;SDS011;53960;51.826;5.850;2024-03-02T07:31:10;3.85;;;0.90;;
67053;SDS011;53960;51.826;5.850;2024-03-02T07:33:36;4.53;;;0.83;;
67053;SDS011;53960;51.826;5.850;2024-03-02T07:36:01;3.83;;;0.70;;
67053;SDS011;53960;51.826;5.850;2024-03-02T07:38:28;4.32;;;0.90;;
67053;SDS011;53960;51.826;5.850;2024-03-02T07:40:53;4.55;;;1.08;;
67053;SDS011;53960;51.826;5.850;2024-03-02T07:43:19;3.10;;;0.60;;
67053;SDS011;53960;51.826;5.850;2024-03-02T07:45:45;4.60;;;0.68;;
67053;SDS011;53960;51.826;5.850;2024-03-02T07:48:11;3.70;;;0.77;;
67053;SDS011;53960;51.826;5.850;2024-03-02T07:50:36;4.77;;;1.07;;
67053;SDS011;53960;51.826;5.850;2024-03-02T07:53:03;3.63;;;0.65;;
67053;SDS011;53960;51.826;5.850;2024-03-02T07:55:29;5.23;;;1.03;;
67053;SDS011;53960;51.826;5.850;2024-03-02T07:57:55;4.18;;;0.85;;
67053;SDS011;53960;51.826;5.850;2024-03-02T08:00:21;4.55;;;0.88;;
67053;SDS011;53960;51.826;5.850;2024-03-02T08:02:47;4.23;;;0.77;;
67053;SDS011;53960;51.826;5.850;2024-03-02T08:05:13;3.72;;;0.70;;
67053;SDS011;53960;51.826;5.850;2024-03-02T08:07:38;3.43;;;0.87;;
67053;SDS011;53960;51.826;5.850;2024-03-02T08:10:04;3.37;;;0.70;;
67053;SDS011;53960;51.826;5.850;2024-03-02T08:12:30;6.50;;;0.80;;
67053;SDS011;53960;51.826;5.850;2024-03-02T08:14:55;5.93;;;0.93;;
67053;SDS011;53960;51.826;5.850;2024-03-02T08:17:21;6.00;;;0.70;;
67053;SDS011;53960;51.826;5.850;2024-03-02T08:19:47;3.17;;;0.70;;
67053;SDS011;53960;51.826;5.850;2024-03-02T08:22:14;4.38;;;0.80;;
67053;SDS011;53960;51.826;5.850;2024-03-02T08:24:40;5.15;;;1.05;;
67053;SDS011;53960;51.826;5.850;2024-03-02T08:27:05;4.63;;;0.82;;
67053;SDS011;53960;51.826;5.850;2024-03-02T08:29:31;3.03;;;0.60;;
67053;SDS011;53960;51.826;5.850;2024-03-02T08:31:56;7.77;;;1.00;;
67053;SDS011;53960;51.826;5.850;2024-03-02T08:34:22;3.58;;;0.77;;
67053;SDS011;53960;51.826;5.850;2024-03-02T08:36:47;4.13;;;0.93;;
67053;SDS011;53960;51.826;5.850;2024-03-02T08:39:13;4.97;;;1.00;;
67053;SDS011;53960;51.826;5.850;2024-03-02T08:41:42;4.70;;;0.73;;
67053;SDS011;53960;51.826;5.850;2024-03-02T08:44:09;5.70;;;0.90;;
67053;SDS011;53960;51.826;5.850;2024-03-02T08:46:35;7.13;;;0.90;;
67053;SDS011;53960;51.826;5.850;2024-03-02T08:49:01;4.50;;;0.80;;
67053;SDS011;53960;51.826;5.850;2024-03-02T08:51:26;5.03;;;0.93;;
67053;SDS011;53960;51.826;5.850;2024-03-02T08:53:51;5.90;;;1.00;;
67053;SDS011;53960;51.826;5.850;2024-03-02T08:56:17;4.30;;;1.20;;
67053;SDS011;53960;51.826;5.850;2024-03-02T08:58:42;6.75;;;1.08;;
67053;SDS011;53960;51.826;5.850;2024-03-02T09:01:08;4.72;;;0.70;;
67053;SDS011;53960;51.826;5.850;2024-03-02T09:03:34;5.20;;;0.97;;
67053;SDS011;53960;51.826;5.850;2024-03-02T09:06:00;4.90;;;0.80;;
67053;SDS011;53960;51.826;5.850;2024-03-02T09:08:25;5.67;;;0.77;;
67053;SDS011;53960;51.826;5.850;2024-03-02T09:10:51;5.77;;;1.43;;
67053;SDS011;53960;51.826;5.850;2024-03-02T09:13:17;6.47;;;1.15;;
67053;SDS011;53960;51.826;5.850;2024-03-02T09:15:42;4.90;;;1.10;;
67053;SDS011;53960;51.826;5.850;2024-03-02T09:18:09;4.53;;;0.70;;
67053;SDS011;53960;51.826;5.850;2024-03-02T09:20:35;5.85;;;0.80;;
67053;SDS011;53960;51.826;5.850;2024-03-02T09:23:00;7.87;;;0.80;;
67053;SDS011;53960;51.826;5.850;2024-03-02T09:25:25;6.47;;;1.10;;
67053;SDS011;53960;51.826;5.850;2024-03-02T09:27:51;5.27;;;0.90;;
67053;SDS011;53960;51.826;5.850;2024-03-02T09:30:19;4.43;;;0.80;;
67053;SDS011;53960;51.826;5.850;2024-03-02T09:32:44;4.03;;;0.90;;
67053;SDS011;53960;51.826;5.850;2024-03-02T09:35:10;6.13;;;1.10;;
67053;SDS011;53960;51.826;5.850;2024-03-02T09:37:36;6.63;;;0.90;;
67053;SDS011;53960;51.826;5.850;2024-03-02T09:40:02;3.45;;;0.80;;
67053;SDS011;53960;51.826;5.850;2024-03-02T09:42:28;4.80;;;1.00;;
67053;SDS011;53960;51.826;5.850;2024-03-02T09:44:53;6.43;;;0.70;;
67053;SDS011;53960;51.826;5.850;2024-03-02T09:47:19;4.13;;;0.70;;
67053;SDS011;53960;51.826;5.850;2024-03-02T09:49:44;4.07;;;0.90;;
67053;SDS011;53960;51.826;5.850;2024-03-02T09:52:10;3.17;;;0.80;;
67053;SDS011;53960;51.826;5.850;2024-03-02T09:54:35;4.63;;;0.70;;
67053;SDS011;53960;51.826;5.850;2024-03-02T09:57:01;6.37;;;0.80;;
67053;SDS011;53960;51.826;5.850;2024-03-02T09:59:27;5.00;;;0.73;;
67053;SDS011;53960;51.826;5.850;2024-03-02T10:02:00;7.28;;;0.80;;
67053;SDS011;53960;51.826;5.850;2024-03-02T10:04:26;6.10;;;0.80;;
67053;SDS011;53960;51.826;5.850;2024-03-02T10:07:14;8.52;;;0.98;;
67053;SDS011;53960;51.826;5.850;2024-03-02T10:09:40;5.75;;;0.80;;
67053;SDS011;53960;51.826;5.850;2024-03-02T10:12:07;8.50;;;0.90;;
67053;SDS011;53960;51.826;5.850;2024-03-02T10:14:33;7.28;;;0.80;;
67053;SDS011;53960;51.826;5.850;2024-03-02T10:17:03;4.97;;;0.87;;
67053;SDS011;53960;51.826;5.850;2024-03-02T10:19:29;4.60;;;0.70;;
67053;SDS011;53960;51.826;5.850;2024-03-02T10:22:00;5.38;;;0.70;;
67053;SDS011;53960;51.826;5.850;2024-03-02T10:24:27;4.45;;;1.00;;
67053;SDS011;53960;51.826;5.850;2024-03-02T10:26:53;3.83;;;0.77;;
67053;SDS011;53960;51.826;5.850;2024-03-02T10:29:19;4.53;;;0.80;;
67053;SDS011;53960;51.826;5.850;2024-03-02T10:31:45;4.10;;;0.83;;
67053;SDS011;53960;51.826;5.850;2024-03-02T10:34:11;4.40;;;0.88;;
67053;SDS011;53960;51.826;5.850;2024-03-02T10:36:37;4.47;;;0.88;;
67053;SDS011;53960;51.826;5.850;2024-03-02T10:39:06;4.47;;;0.90;;
67053;SDS011;53960;51.826;5.850;2024-03-02T10:41:36;6.70;;;0.80;;
67053;SDS011;53960;51.826;5.850;2024-03-02T10:44:03;6.65;;;0.90;;
67053;SDS011;53960;51.826;5.850;2024-03-02T10:46:30;5.85;;;1.10;;
67053;SDS011;53960;51.826;5.850;2024-03-02T10:48:56;4.00;;;0.95;;
67053;SDS011;53960;51.826;5.850;2024-03-02T10:51:25;3.00;;;0.70;;
67053;SDS011;53960;51.826;5.850;2024-03-02T10:53:53;4.88;;;0.70;;
67053;SDS011;53960;51.826;5.850;2024-03-02T10:56:24;5.88;;;0.90;;
67053;SDS011;53960;51.826;5.850;2024-03-02T10:59:01;3.05;;;0.73;;
67053;SDS011;53960;51.826;5.850;2024-03-02T11:01:29;4.30;;;0.70;;
67053;SDS011;53960;51.826;5.850;2024-03-02T11:03:56;4.38;;;0.77;;
67053;SDS011;53960;51.826;5.850;2024-03-02T11:06:23;4.88;;;0.90;;
67053;SDS011;53960;51.826;5.850;2024-03-02T11:08:51;10.00;;;1.42;;
67053;SDS011;53960;51.826;5.850;2024-03-02T11:11:25;4.32;;;0.90;;
67053;SDS011;53960;51.826;5.850;2024-03-02T11:13:54;6.70;;;0.70;;
67053;SDS011;53960;51.826;5.850;2024-03-02T11:18:59;5.10;;;0.82;;
67053;SDS011;53960;51.826;5.850;2024-03-02T11:21:25;7.00;;;0.80;;
67053;SDS011;53960;51.826;5.850;2024-03-02T11:23:51;5.87;;;0.73;;
67053;SDS011;53960;51.826;5.850;2024-03-02T11:26:20;5.60;;;0.87;;
67053;SDS011;53960;51.826;5.850;2024-03-02T11:28:46;3.80;;;0.90;;
67053;SDS011;53960;51.826;5.850;2024-03-02T11:31:12;6.23;;;0.90;;
67053;SDS011;53960;51.826;5.850;2024-03-02T11:33:37;3.58;;;0.68;;
67053;SDS011;53960;51.826;5.850;2024-03-02T11:36:03;3.53;;;0.70;;
67053;SDS011;53960;51.826;5.850;2024-03-02T11:38:30;4.25;;;0.80;;
67053;SDS011;53960;51.826;5.850;2024-03-02T11:40:57;5.50;;;0.80;;
67053;SDS011;53960;51.826;5.850;2024-03-02T11:43:24;4.85;;;0.68;;
67053;SDS011;53960;51.826;5.850;2024-03-02T11:45:59;5.95;;;0.70;;
67053;SDS011;53960;51.826;5.850;2024-03-02T11:48:25;6.05;;;1.00;;
67053;SDS011;53960;51.826;5.850;2024-03-02T11:50:52;6.20;;;0.80;;
67053;SDS011;53960;51.826;5.850;2024-03-02T11:53:18;5.13;;;0.70;;
67053;SDS011;53960;51.826;5.850;2024-03-02T11:55:45;4.47;;;0.70;;
67053;SDS011;53960;51.826;5.850;2024-03-02T11:58:11;3.97;;;0.80;;
67053;SDS011;53960;51.826;5.850;2024-03-02T12:00:38;6.15;;;0.77;;
67053;SDS011;53960;51.826;5.850;2024-03-02T12:03:04;3.60;;;0.70;;
67053;SDS011;53960;51.826;5.850;2024-03-02T12:05:31;4.65;;;1.20;;
67053;SDS011;53960;51.826;5.850;2024-03-02T12:07:57;4.35;;;0.70;;
67053;SDS011;53960;51.826;5.850;2024-03-02T12:10:24;5.68;;;1.00;;
67053;SDS011;53960;51.826;5.850;2024-03-02T12:15:35;5.65;;;0.80;;
67053;SDS011;53960;51.826;5.850;2024-03-02T12:18:02;5.75;;;1.23;;
67053;SDS011;53960;51.826;5.850;2024-03-02T12:20:28;4.05;;;0.70;;
67053;SDS011;53960;51.826;5.850;2024-03-02T12:22:55;4.17;;;0.63;;
67053;SDS011;53960;51.826;5.850;2024-03-02T12:25:22;3.38;;;0.63;;
67053;SDS011;53960;51.826;5.850;2024-03-02T12:27:49;6.55;;;0.90;;
67053;SDS011;53960;51.826;5.850;2024-03-02T12:30:17;5.18;;;0.75;;
67053;SDS011;53960;51.826;5.850;2024-03-02T12:32:42;4.80;;;0.70;;
67053;SDS011;53960;51.826;5.850;2024-03-02T12:35:12;5.10;;;0.97;;
67053;SDS011;53960;51.826;5.850;2024-03-02T12:37:49;6.18;;;1.13;;
67053;SDS011;53960;51.826;5.850;2024-03-02T12:40:17;6.35;;;1.42;;
67053;SDS011;53960;51.826;5.850;2024-03-02T12:42:43;6.85;;;1.02;;
67053;SDS011;53960;51.826;5.850;2024-03-02T12:45:10;5.35;;;1.10;;
67053;SDS011;53960;51.826;5.850;2024-03-02T12:47:36;4.97;;;1.07;;
67053;SDS011;53960;51.826;5.850;2024-03-02T12:50:04;5.85;;;1.30;;
67053;SDS011;53960;51.826;5.850;2024-03-02T12:52:31;7.57;;;1.30;;
67053;SDS011;53960;51.826;5.850;2024-03-02T12:55:00;5.75;;;1.10;;
67053;SDS011;53960;51.826;5.850;2024-03-02T12:57:28;4.60;;;1.00;;
67053;SDS011;53960;51.826;5.850;2024-03-02T12:59:58;5.05;;;1.10;;
67053;SDS011;53960;51.826;5.850;2024-03-02T13:02:27;5.40;;;0.90;;
67053;SDS011;53960;51.826;5.850;2024-03-02T13:04:54;4.93;;;0.90;;
67053;SDS011;53960;51.826;5.850;2024-03-02T13:07:20;6.63;;;1.33;;
67053;SDS011;53960;51.826;5.850;2024-03-02T13:09:48;3.83;;;0.90;;
67053;SDS011;53960;51.826;5.850;2024-03-02T13:12:15;4.97;;;1.10;;
67053;SDS011;53960;51.826;5.850;2024-03-02T13:14:41;4.78;;;0.95;;
67053;SDS011;53960;51.826;5.850;2024-03-02T13:17:10;4.37;;;0.90;;
67053;SDS011;53960;51.826;5.850;2024-03-02T13:19:35;4.20;;;0.90;;
67053;SDS011;53960;51.826;5.850;2024-03-02T13:22:01;4.05;;;0.80;;
67053;SDS011;53960;51.826;5.850;2024-03-02T13:24:30;3.40;;;0.63;;
67053;SDS011;53960;51.826;5.850;2024-03-02T13:26:56;4.82;;;0.80;;
67053;SDS011;53960;51.826;5.850;2024-03-02T13:29:23;6.28;;;1.08;;
67053;SDS011;53960;51.826;5.850;2024-03-02T13:31:51;6.22;;;0.77;;
67053;SDS011;53960;51.826;5.850;2024-03-02T13:34:16;5.97;;;1.20;;
67053;SDS011;53960;51.826;5.850;2024-03-02T13:36:42;4.77;;;1.10;;
67053;SDS011;53960;51.826;5.850;2024-03-02T13:39:07;6.83;;;1.33;;
67053;SDS011;53960;51.826;5.850;2024-03-02T13:41:35;5.55;;;1.20;;
67053;SDS011;53960;51.826;5.850;2024-03-02T13:44:01;3.95;;;0.90;;
67053;SDS011;53960;51.826;5.850;2024-03-02T13:46:27;5.35;;;1.13;;
67053;SDS011;53960;51.826;5.850;2024-03-02T13:48:53;4.67;;;0.87;;
67053;SDS011;53960;51.826;5.850;2024-03-02T13:51:19;4.55;;;0.63;;
67053;SDS011;53960;51.826;5.850;2024-03-02T13:53:44;4.70;;;0.83;;
67053;SDS011;53960;51.826;5.850;2024-03-02T13:56:10;5.10;;;0.80;;
67053;SDS011;53960;51.826;5.850;2024-03-02T13:58:35;4.27;;;0.70;;
67053;SDS011;53960;51.826;5.850;2024-03-02T14:01:00;5.65;;;0.77;;
67053;SDS011;53960;51.826;5.850;2024-03-02T14:03:29;6.03;;;0.90;;
67053;SDS011;53960;51.826;5.850;2024-03-02T14:05:54;3.92;;;0.82;;
67053;SDS011;53960;51.826;5.850;2024-03-02T14:08:20;5.33;;;1.03;;
67053;SDS011;53960;51.826;5.850;2024-03-02T14:10:46;5.93;;;1.08;;
67053;SDS011;53960;51.826;5.850;2024-03-02T14:13:11;4.83;;;0.80;;
67053;SDS011;53960;51.826;5.850;2024-03-02T14:15:36;5.50;;;0.80;;
67053;SDS011;53960;51.826;5.850;2024-03-02T14:18:04;4.97;;;0.70;;
67053;SDS011;53960;51.826;5.850;2024-03-02T14:20:30;4.22;;;0.70;;
67053;SDS011;53960;51.826;5.850;2024-03-02T14:22:57;3.73;;;0.70;;
67053;SDS011;53960;51.826;5.850;2024-03-02T14:25:24;6.95;;;0.80;;
67053;SDS011;53960;51.826;5.850;2024-03-02T14:27:49;6.00;;;0.80;;
67053;SDS011;53960;51.826;5.850;2024-03-02T14:30:14;4.63;;;0.80;;
67053;SDS011;53960;51.826;5.850;2024-03-02T14:32:40;5.20;;;0.85;;
67053;SDS011;53960;51.826;5.850;2024-03-02T14:35:05;4.27;;;0.80;;
67053;SDS011;53960;51.826;5.850;2024-03-02T14:37:34;4.50;;;1.00;;
67053;SDS011;53960;51.826;5.850;2024-03-02T14:40:00;5.07;;;0.90;;
67053;SDS011;53960;51.826;5.850;2024-03-02T14:42:25;5.13;;;0.90;;
67053;SDS011;53960;51.826;5.850;2024-03-02T14:44:53;4.53;;;1.20;;
67053;SDS011;53960;51.826;5.850;2024-03-02T14:47:18;3.83;;;0.77;;